sensor_id;sensor_type;location;lat;lon;timestamp;P1;durP1;ratioP1;P2;durP2;ratioP2
2049;SDS011;8478;49.208;8.806;2023-02-18T00:00:14;4.30;;;4.00;;
2049;SDS011;8478;49.208;8.806;2023-02-18T00:02:42;4.40;;;4.10;;
2049;SDS011;8478;49.208;8.806;2023-02-18T00:05:09;4.33;;;4.13;;
2049;SDS011;8478;49.208;8.806;2023-02-18T00:07:35;4.87;;;3.70;;
2049;SDS011;8478;49.208;8.806;2023-02-18T00:10:03;4.53;;;4.23;;
2049;SDS011;8478;49.208;8.806;2023-02-18T00:12:30;4.37;;;4.07;;
2049;SDS011;8478;49.208;8.806;2023-02-18T00:14:56;3.80;;;3.60;;
2049;SDS011;8478;49.208;8.806;2023-02-18T00:17:22;3.73;;;3.53;;
2049;SDS011;8478;49.208;8.806;2023-02-18T00:19:48;3.93;;;3.73;;
2049;SDS011;8478;49.208;8.806;2023-02-18T00:22:13;4.30;;;4.00;;
2049;SDS011;8478;49.208;8.806;2023-02-18T00:24:39;4.43;;;4.10;;
2049;SDS011;8478;49.208;8.806;2023-02-18T00:27:04;3.90;;;3.70;;
2049;SDS011;8478;49.208;8.806;2023-02-18T00:29:31;4.63;;;4.33;;
2049;SDS011;8478;49.208;8.806;2023-02-18T00:31:56;4.60;;;4.30;;
2049;SDS011;8478;49.208;8.806;2023-02-18T00:34:22;4.27;;;3.97;;
2049;SDS011;8478;49.208;8.806;2023-02-18T00:36:48;4.27;;;4.07;;
2049;SDS011;8478;49.208;8.806;2023-02-18T00:39:14;4.07;;;3.77;;
2049;SDS011;8478;49.208;8.806;2023-02-18T00:41:40;4.27;;;3.97;;
2049;SDS011;8478;49.208;8.806;2023-02-18T00:44:06;4.53;;;4.23;;
2049;SDS011;8478;49.208;8.806;2023-02-18T00:46:32;5.10;;;4.07;;
2049;SDS011;8478;49.208;8.806;2023-02-18T00:48:58;4.20;;;3.90;;
2049;SDS011;8478;49.208;8.806;2023-02-18T00:51:24;4.10;;;3.70;;
2049;SDS011;8478;49.208;8.806;2023-02-18T00:53:50;4.07;;;3.87;;
2049;SDS011;8478;49.208;8.806;2023-02-18T00:56:16;4.00;;;3.80;;
2049;SDS011;8478;49.208;8.806;2023-02-18T00:58:42;4.50;;;4.20;;
2049;SDS011;8478;49.208;8.806;2023-02-18T01:01:08;4.43;;;4.13;;
2049;SDS011;8478;49.208;8.806;2023-02-18T01:03:35;3.80;;;3.60;;
2049;SDS011;8478;49.208;8.806;2023-02-18T01:06:02;3.90;;;3.60;;
2049;SDS011;8478;49.208;8.806;2023-02-18T01:08:28;4.40;;;4.10;;
2049;SDS011;8478;49.208;8.806;2023-02-18T01:10:55;4.43;;;3.77;;
2049;SDS011;8478;49.208;8.806;2023-02-18T01:13:22;4.30;;;4.00;;
2049;SDS011;8478;49.208;8.806;2023-02-18T01:15:48;3.83;;;3.63;;
2049;SDS011;8478;49.208;8.806;2023-02-18T01:18:14;3.73;;;3.53;;
2049;SDS011;8478;49.208;8.806;2023-02-18T01:20:41;4.23;;;4.03;;
2049;SDS011;8478;49.208;8.806;2023-02-18T01:23:08;4.20;;;3.90;;
2049;SDS011;8478;49.208;8.806;2023-02-18T01:25:35;4.40;;;4.00;;
2049;SDS011;8478;49.208;8.806;2023-02-18T01:28:02;4.17;;;3.90;;
2049;SDS011;8478;49.208;8.806;2023-02-18T01:30:28;3.67;;;3.47;;
2049;SDS011;8478;49.208;8.806;2023-02-18T01:32:55;3.90;;;3.70;;
2049;SDS011;8478;49.208;8.806;2023-02-18T01:35:21;4.63;;;4.33;;
2049;SDS011;8478;49.208;8.806;2023-02-18T01:37:48;3.83;;;3.53;;
2049;SDS011;8478;49.208;8.806;2023-02-18T01:40:16;4.20;;;3.90;;
2049;SDS011;8478;49.208;8.806;2023-02-18T01:42:44;4.50;;;4.20;;
2049;SDS011;8478;49.208;8.806;2023-02-18T01:47:58;4.60;;;4.30;;
2049;SDS011;8478;49.208;8.806;2023-02-18T01:50:37;4.20;;;4.00;;
2049;SDS011;8478;49.208;8.806;2023-02-18T01:53:04;4.33;;;4.03;;
2049;SDS011;8478;49.208;8.806;2023-02-18T01:55:32;4.80;;;4.50;;
2049;SDS011;8478;49.208;8.806;2023-02-18T01:57:59;4.70;;;4.40;;
2049;SDS011;8478;49.208;8.806;2023-02-18T02:00:25;4.20;;;4.00;;
2049;SDS011;8478;49.208;8.806;2023-02-18T02:02:51;4.83;;;4.53;;
2049;SDS011;8478;49.208;8.806;2023-02-18T02:05:19;4.17;;;3.97;;
2049;SDS011;8478;49.208;8.806;2023-02-18T02:07:46;4.57;;;4.27;;
2049;SDS011;8478;49.208;8.806;2023-02-18T02:10:16;4.50;;;4.20;;
2049;SDS011;8478;49.208;8.806;2023-02-18T02:26:57;4.60;;;4.30;;
2049;SDS011;8478;49.208;8.806;2023-02-18T02:34:58;5.43;;;5.00;;
2049;SDS011;8478;49.208;8.806;2023-02-18T02:37:48;4.80;;;4.30;;
2049;SDS011;8478;49.208;8.806;2023-02-18T02:43:46;4.60;;;4.27;;
2049;SDS011;8478;49.208;8.806;2023-02-18T02:46:44;4.73;;;4.43;;
2049;SDS011;8478;49.208;8.806;2023-02-18T02:49:12;4.70;;;4.30;;
2049;SDS011;8478;49.208;8.806;2023-02-18T02:51:53;4.43;;;4.13;;
2049;SDS011;8478;49.208;8.806;2023-02-18T02:54:41;4.50;;;4.20;;
2049;SDS011;8478;49.208;8.806;2023-02-18T02:59:54;5.43;;;4.90;;
2049;SDS011;8478;49.208;8.806;2023-02-18T03:05:04;5.03;;;4.73;;
2049;SDS011;8478;49.208;8.806;2023-02-18T03:08:37;4.70;;;4.40;;
2049;SDS011;8478;49.208;8.806;2023-02-18T03:18:47;6.07;;;5.57;;
2049;SDS011;8478;49.208;8.806;2023-02-18T03:21:24;5.17;;;4.87;;
2049;SDS011;8478;49.208;8.806;2023-02-18T03:24:06;5.07;;;4.77;;
2049;SDS011;8478;49.208;8.806;2023-02-18T03:26:38;5.03;;;4.80;;
2049;SDS011;8478;49.208;8.806;2023-02-18T03:29:08;6.30;;;5.90;;
2049;SDS011;8478;49.208;8.806;2023-02-18T03:31:36;5.70;;;5.00;;
2049;SDS011;8478;49.208;8.806;2023-02-18T03:34:06;5.10;;;4.80;;
2049;SDS011;8478;49.208;8.806;2023-02-18T03:36:36;6.03;;;5.63;;
2049;SDS011;8478;49.208;8.806;2023-02-18T03:39:04;5.90;;;5.50;;
2049;SDS011;8478;49.208;8.806;2023-02-18T03:41:31;5.67;;;5.27;;
2049;SDS011;8478;49.208;8.806;2023-02-18T03:43:58;6.07;;;5.67;;
2049;SDS011;8478;49.208;8.806;2023-02-18T03:46:29;5.30;;;4.90;;
2049;SDS011;8478;49.208;8.806;2023-02-18T03:48:56;5.97;;;5.57;;
2049;SDS011;8478;49.208;8.806;2023-02-18T03:51:22;5.27;;;4.97;;
2049;SDS011;8478;49.208;8.806;2023-02-18T03:53:48;6.20;;;5.80;;
2049;SDS011;8478;49.208;8.806;2023-02-18T03:56:14;6.10;;;5.60;;
2049;SDS011;8478;49.208;8.806;2023-02-18T03:58:40;5.83;;;5.50;;
2049;SDS011;8478;49.208;8.806;2023-02-18T04:01:05;5.80;;;5.43;;
2049;SDS011;8478;49.208;8.806;2023-02-18T04:03:31;6.20;;;5.80;;
2049;SDS011;8478;49.208;8.806;2023-02-18T04:05:57;6.33;;;5.87;;
2049;SDS011;8478;49.208;8.806;2023-02-18T04:08:23;7.17;;;6.77;;
2049;SDS011;8478;49.208;8.806;2023-02-18T04:10:49;7.03;;;6.53;;
2049;SDS011;8478;49.208;8.806;2023-02-18T04:13:15;5.80;;;5.50;;
2049;SDS011;8478;49.208;8.806;2023-02-18T04:15:44;7.30;;;6.80;;
2049;SDS011;8478;49.208;8.806;2023-02-18T04:18:10;6.53;;;6.13;;
2049;SDS011;8478;49.208;8.806;2023-02-18T04:20:36;6.80;;;6.40;;
2049;SDS011;8478;49.208;8.806;2023-02-18T04:23:02;7.40;;;6.90;;
2049;SDS011;8478;49.208;8.806;2023-02-18T04:25:28;5.97;;;5.63;;
2049;SDS011;8478;49.208;8.806;2023-02-18T04:27:54;7.20;;;6.70;;
2049;SDS011;8478;49.208;8.806;2023-02-18T04:30:20;7.50;;;7.00;;
2049;SDS011;8478;49.208;8.806;2023-02-18T04:32:46;6.80;;;6.40;;
2049;SDS011;8478;49.208;8.806;2023-02-18T04:35:12;7.80;;;7.30;;
2049;SDS011;8478;49.208;8.806;2023-02-18T04:37:37;6.70;;;6.20;;
2049;SDS011;8478;49.208;8.806;2023-02-18T04:40:03;7.50;;;7.10;;
2049;SDS011;8478;49.208;8.806;2023-02-18T04:42:30;7.53;;;7.03;;
2049;SDS011;8478;49.208;8.806;2023-02-18T04:44:55;7.23;;;6.70;;
2049;SDS011;8478;49.208;8.806;2023-02-18T04:47:21;8.10;;;7.60;;
2049;SDS011;8478;49.208;8.806;2023-02-18T04:49:46;7.47;;;6.87;;
2049;SDS011;8478;49.208;8.806;2023-02-18T04:52:12;7.80;;;7.30;;
2049;SDS011;8478;49.208;8.806;2023-02-18T04:54:38;7.10;;;6.63;;
2049;SDS011;8478;49.208;8.806;2023-02-18T04:57:03;7.40;;;6.90;;
2049;SDS011;8478;49.208;8.806;2023-02-18T04:59:29;7.17;;;6.67;;
2049;SDS011;8478;49.208;8.806;2023-02-18T05:01:55;7.83;;;7.20;;
2049;SDS011;8478;49.208;8.806;2023-02-18T05:04:20;8.23;;;7.63;;
2049;SDS011;8478;49.208;8.806;2023-02-18T05:06:46;7.70;;;7.20;;
2049;SDS011;8478;49.208;8.806;2023-02-18T05:09:12;7.87;;;7.37;;
2049;SDS011;8478;49.208;8.806;2023-02-18T05:11:38;8.27;;;7.77;;
2049;SDS011;8478;49.208;8.806;2023-02-18T05:14:04;8.07;;;7.57;;
2049;SDS011;8478;49.208;8.806;2023-02-18T05:16:29;7.70;;;7.20;;
2049;SDS011;8478;49.208;8.806;2023-02-18T05:18:55;8.13;;;7.60;;
2049;SDS011;8478;49.208;8.806;2023-02-18T05:21:21;6.73;;;6.33;;
2049;SDS011;8478;49.208;8.806;2023-02-18T05:23:47;6.90;;;6.50;;
2049;SDS011;8478;49.208;8.806;2023-02-18T05:26:12;6.70;;;6.30;;
2049;SDS011;8478;49.208;8.806;2023-02-18T05:28:38;7.50;;;7.00;;
2049;SDS011;8478;49.208;8.806;2023-02-18T05:31:04;6.77;;;6.33;;
2049;SDS011;8478;49.208;8.806;2023-02-18T05:33:29;7.30;;;6.80;;
2049;SDS011;8478;49.208;8.806;2023-02-18T05:35:55;6.80;;;6.30;;
2049;SDS011;8478;49.208;8.806;2023-02-18T05:38:20;6.73;;;6.33;;
2049;SDS011;8478;49.208;8.806;2023-02-18T05:40:46;6.63;;;6.23;;
2049;SDS011;8478;49.208;8.806;2023-02-18T05:43:12;6.87;;;6.47;;
2049;SDS011;8478;49.208;8.806;2023-02-18T05:45:38;6.30;;;5.90;;
2049;SDS011;8478;49.208;8.806;2023-02-18T05:48:04;6.50;;;6.00;;
2049;SDS011;8478;49.208;8.806;2023-02-18T05:50:29;5.77;;;5.37;;
2049;SDS011;8478;49.208;8.806;2023-02-18T05:52:55;5.60;;;5.20;;
2049;SDS011;8478;49.208;8.806;2023-02-18T05:55:21;6.23;;;5.83;;
2049;SDS011;8478;49.208;8.806;2023-02-18T05:57:48;6.10;;;5.70;;
2049;SDS011;8478;49.208;8.806;2023-02-18T06:00:14;6.03;;;5.63;;
2049;SDS011;8478;49.208;8.806;2023-02-18T06:02:40;6.03;;;5.63;;
2049;SDS011;8478;49.208;8.806;2023-02-18T06:05:06;6.00;;;5.57;;
2049;SDS011;8478;49.208;8.806;2023-02-18T06:07:32;6.37;;;5.97;;
2049;SDS011;8478;49.208;8.806;2023-02-18T06:09:58;6.30;;;5.90;;
2049;SDS011;8478;49.208;8.806;2023-02-18T06:12:24;5.97;;;5.57;;
2049;SDS011;8478;49.208;8.806;2023-02-18T06:14:49;6.07;;;5.67;;
2049;SDS011;8478;49.208;8.806;2023-02-18T06:17:15;6.00;;;5.60;;
2049;SDS011;8478;49.208;8.806;2023-02-18T06:19:42;5.27;;;4.97;;
2049;SDS011;8478;49.208;8.806;2023-02-18T06:22:09;5.50;;;5.10;;
2049;SDS011;8478;49.208;8.806;2023-02-18T06:24:34;5.70;;;5.30;;
2049;SDS011;8478;49.208;8.806;2023-02-18T06:27:00;5.43;;;5.03;;
2049;SDS011;8478;49.208;8.806;2023-02-18T06:29:26;5.33;;;5.03;;
2049;SDS011;8478;49.208;8.806;2023-02-18T06:31:54;5.77;;;5.37;;
2049;SDS011;8478;49.208;8.806;2023-02-18T06:34:19;5.50;;;5.10;;
2049;SDS011;8478;49.208;8.806;2023-02-18T06:36:45;5.17;;;4.77;;
2049;SDS011;8478;49.208;8.806;2023-02-18T06:39:11;5.27;;;4.97;;
2049;SDS011;8478;49.208;8.806;2023-02-18T06:41:36;5.27;;;4.90;;
2049;SDS011;8478;49.208;8.806;2023-02-18T06:44:02;5.70;;;5.40;;
2049;SDS011;8478;49.208;8.806;2023-02-18T06:46:28;5.67;;;5.20;;
2049;SDS011;8478;49.208;8.806;2023-02-18T06:48:54;4.80;;;4.50;;
2049;SDS011;8478;49.208;8.806;2023-02-18T06:51:19;6.40;;;5.90;;
2049;SDS011;8478;49.208;8.806;2023-02-18T06:53:45;5.53;;;5.13;;
2049;SDS011;8478;49.208;8.806;2023-02-18T06:56:11;4.97;;;4.67;;
2049;SDS011;8478;49.208;8.806;2023-02-18T06:58:36;5.00;;;4.60;;
2049;SDS011;8478;49.208;8.806;2023-02-18T07:01:03;5.13;;;4.83;;
2049;SDS011;8478;49.208;8.806;2023-02-18T07:03:29;5.90;;;5.50;;
2049;SDS011;8478;49.208;8.806;2023-02-18T07:05:54;5.00;;;4.70;;
2049;SDS011;8478;49.208;8.806;2023-02-18T07:08:21;5.13;;;4.83;;
2049;SDS011;8478;49.208;8.806;2023-02-18T07:10:47;4.80;;;4.50;;
2049;SDS011;8478;49.208;8.806;2023-02-18T07:13:13;4.20;;;3.90;;
2049;SDS011;8478;49.208;8.806;2023-02-18T07:15:39;4.83;;;4.53;;
2049;SDS011;8478;49.208;8.806;2023-02-18T07:18:05;5.50;;;5.00;;
2049;SDS011;8478;49.208;8.806;2023-02-18T07:20:31;5.40;;;5.00;;
2049;SDS011;8478;49.208;8.806;2023-02-18T07:22:57;5.60;;;5.20;;
2049;SDS011;8478;49.208;8.806;2023-02-18T07:25:22;5.70;;;5.30;;
2049;SDS011;8478;49.208;8.806;2023-02-18T07:27:49;4.90;;;4.60;;
2049;SDS011;8478;49.208;8.806;2023-02-18T07:30:15;4.87;;;4.57;;
2049;SDS011;8478;49.208;8.806;2023-02-18T07:32:41;4.77;;;4.47;;
2049;SDS011;8478;49.208;8.806;2023-02-18T07:35:07;4.80;;;4.40;;
2049;SDS011;8478;49.208;8.806;2023-02-18T07:37:34;5.03;;;4.73;;
2049;SDS011;8478;49.208;8.806;2023-02-18T07:40:00;5.00;;;4.70;;
2049;SDS011;8478;49.208;8.806;2023-02-18T07:42:25;4.80;;;4.40;;
2049;SDS011;8478;49.208;8.806;2023-02-18T07:44:51;5.03;;;4.70;;
2049;SDS011;8478;49.208;8.806;2023-02-18T07:47:17;4.47;;;4.10;;
2049;SDS011;8478;49.208;8.806;2023-02-18T07:49:45;4.77;;;4.47;;
2049;SDS011;8478;49.208;8.806;2023-02-18T07:52:12;5.53;;;5.20;;
2049;SDS011;8478;49.208;8.806;2023-02-18T07:54:39;5.30;;;4.80;;
2049;SDS011;8478;49.208;8.806;2023-02-18T07:57:04;4.80;;;4.40;;
2049;SDS011;8478;49.208;8.806;2023-02-18T07:59:30;4.67;;;4.37;;
2049;SDS011;8478;49.208;8.806;2023-02-18T08:01:56;4.60;;;4.30;;
2049;SDS011;8478;49.208;8.806;2023-02-18T08:04:21;4.90;;;4.50;;
2049;SDS011;8478;49.208;8.806;2023-02-18T08:06:47;4.67;;;4.27;;
2049;SDS011;8478;49.208;8.806;2023-02-18T08:09:14;5.30;;;4.90;;
2049;SDS011;8478;49.208;8.806;2023-02-18T08:11:41;4.50;;;4.23;;
2049;SDS011;8478;49.208;8.806;2023-02-18T08:14:07;4.50;;;4.20;;
2049;SDS011;8478;49.208;8.806;2023-02-18T08:16:33;5.10;;;4.70;;
2049;SDS011;8478;49.208;8.806;2023-02-18T08:18:59;4.50;;;4.20;;
2049;SDS011;8478;49.208;8.806;2023-02-18T08:21:27;4.23;;;3.93;;
2049;SDS011;8478;49.208;8.806;2023-02-18T08:23:53;4.40;;;4.10;;
2049;SDS011;8478;49.208;8.806;2023-02-18T08:26:19;4.70;;;4.40;;
2049;SDS011;8478;49.208;8.806;2023-02-18T08:28:45;4.00;;;3.80;;
2049;SDS011;8478;49.208;8.806;2023-02-18T08:31:19;5.00;;;4.30;;
2049;SDS011;8478;49.208;8.806;2023-02-18T08:33:47;4.37;;;3.97;;
2049;SDS011;8478;49.208;8.806;2023-02-18T08:36:13;4.30;;;3.90;;
2049;SDS011;8478;49.208;8.806;2023-02-18T08:38:38;4.67;;;4.27;;
2049;SDS011;8478;49.208;8.806;2023-02-18T08:41:05;4.33;;;4.03;;
2049;SDS011;8478;49.208;8.806;2023-02-18T08:43:32;4.57;;;4.27;;
2049;SDS011;8478;49.208;8.806;2023-02-18T08:45:58;4.87;;;4.50;;
2049;SDS011;8478;49.208;8.806;2023-02-18T08:48:24;4.53;;;4.20;;
2049;SDS011;8478;49.208;8.806;2023-02-18T08:50:50;5.33;;;4.93;;
2049;SDS011;8478;49.208;8.806;2023-02-18T08:53:16;4.87;;;4.50;;
2049;SDS011;8478;49.208;8.806;2023-02-18T08:55:42;4.80;;;4.50;;
2049;SDS011;8478;49.208;8.806;2023-02-18T08:58:08;4.80;;;4.40;;
2049;SDS011;8478;49.208;8.806;2023-02-18T09:00:35;4.90;;;4.50;;
2049;SDS011;8478;49.208;8.806;2023-02-18T09:03:01;4.63;;;4.33;;
2049;SDS011;8478;49.208;8.806;2023-02-18T09:05:27;4.77;;;4.37;;
2049;SDS011;8478;49.208;8.806;2023-02-18T09:07:53;5.03;;;4.63;;
2049;SDS011;8478;49.208;8.806;2023-02-18T09:10:19;4.83;;;4.53;;
2049;SDS011;8478;49.208;8.806;2023-02-18T09:12:44;5.60;;;4.53;;
2049;SDS011;8478;49.208;8.806;2023-02-18T09:15:10;5.33;;;4.87;;
2049;SDS011;8478;49.208;8.806;2023-02-18T09:17:35;4.50;;;4.20;;
2049;SDS011;8478;49.208;8.806;2023-02-18T09:20:01;5.23;;;4.83;;
2049;SDS011;8478;49.208;8.806;2023-02-18T09:22:28;5.77;;;4.73;;
2049;SDS011;8478;49.208;8.806;2023-02-18T09:24:53;4.57;;;4.27;;
2049;SDS011;8478;49.208;8.806;2023-02-18T09:27:19;4.40;;;4.10;;
2049;SDS011;8478;49.208;8.806;2023-02-18T09:29:46;5.30;;;5.00;;
2049;SDS011;8478;49.208;8.806;2023-02-18T09:32:12;5.53;;;5.03;;
2049;SDS011;8478;49.208;8.806;2023-02-18T09:34:37;5.70;;;5.30;;
2049;SDS011;8478;49.208;8.806;2023-02-18T09:37:04;5.00;;;4.60;;
2049;SDS011;8478;49.208;8.806;2023-02-18T09:39:29;5.03;;;4.63;;
2049;SDS011;8478;49.208;8.806;2023-02-18T09:41:58;5.07;;;4.70;;
2049;SDS011;8478;49.208;8.806;2023-02-18T09:44:31;5.20;;;4.53;;
2049;SDS011;8478;49.208;8.806;2023-02-18T09:47:10;4.50;;;4.20;;
2049;SDS011;8478;49.208;8.806;2023-02-18T09:49:40;5.10;;;4.60;;
2049;SDS011;8478;49.208;8.806;2023-02-18T09:52:12;4.80;;;4.50;;
2049;SDS011;8478;49.208;8.806;2023-02-18T09:54:58;5.50;;;5.10;;
2049;SDS011;8478;49.208;8.806;2023-02-18T09:57:29;4.93;;;4.63;;
2049;SDS011;8478;49.208;8.806;2023-02-18T10:00:06;5.07;;;4.73;;
2049;SDS011;8478;49.208;8.806;2023-02-18T10:02:55;5.93;;;5.40;;
2049;SDS011;8478;49.208;8.806;2023-02-18T10:05:23;4.90;;;4.60;;
2049;SDS011;8478;49.208;8.806;2023-02-18T10:07:50;5.33;;;4.77;;
2049;SDS011;8478;49.208;8.806;2023-02-18T10:10:20;4.53;;;4.33;;
2049;SDS011;8478;49.208;8.806;2023-02-18T10:12:57;4.73;;;4.43;;
2049;SDS011;8478;49.208;8.806;2023-02-18T10:15:28;4.50;;;4.10;;
2049;SDS011;8478;49.208;8.806;2023-02-18T10:17:56;5.60;;;4.90;;
2049;SDS011;8478;49.208;8.806;2023-02-18T10:20:23;4.80;;;4.33;;
2049;SDS011;8478;49.208;8.806;2023-02-18T10:22:52;5.53;;;5.13;;
2049;SDS011;8478;49.208;8.806;2023-02-18T10:25:20;4.60;;;4.30;;
2049;SDS011;8478;49.208;8.806;2023-02-18T10:27:48;5.33;;;4.90;;
2049;SDS011;8478;49.208;8.806;2023-02-18T10:30:20;4.80;;;4.50;;
2049;SDS011;8478;49.208;8.806;2023-02-18T10:33:10;5.23;;;4.73;;
2049;SDS011;8478;49.208;8.806;2023-02-18T10:36:28;4.90;;;4.60;;
2049;SDS011;8478;49.208;8.806;2023-02-18T10:43:30;4.93;;;4.63;;
2049;SDS011;8478;49.208;8.806;2023-02-18T10:46:06;4.87;;;4.47;;
2049;SDS011;8478;49.208;8.806;2023-02-18T10:51:31;5.03;;;4.73;;
2049;SDS011;8478;49.208;8.806;2023-02-18T10:53:59;4.83;;;4.53;;
2049;SDS011;8478;49.208;8.806;2023-02-18T10:56:36;5.00;;;4.70;;
2049;SDS011;8478;49.208;8.806;2023-02-18T10:59:09;4.90;;;4.60;;
2049;SDS011;8478;49.208;8.806;2023-02-18T11:01:36;5.27;;;4.87;;
2049;SDS011;8478;49.208;8.806;2023-02-18T11:04:11;4.67;;;4.37;;
2049;SDS011;8478;49.208;8.806;2023-02-18T11:06:41;4.30;;;4.00;;
2049;SDS011;8478;49.208;8.806;2023-02-18T11:12:16;4.50;;;4.20;;
2049;SDS011;8478;49.208;8.806;2023-02-18T11:14:48;4.90;;;4.50;;
2049;SDS011;8478;49.208;8.806;2023-02-18T11:17:31;4.60;;;4.30;;
2049;SDS011;8478;49.208;8.806;2023-02-18T11:19:59;4.50;;;4.20;;
2049;SDS011;8478;49.208;8.806;2023-02-18T11:22:36;4.67;;;4.37;;
2049;SDS011;8478;49.208;8.806;2023-02-18T11:25:17;4.70;;;4.30;;
2049;SDS011;8478;49.208;8.806;2023-02-18T11:27:47;4.80;;;4.40;;
2049;SDS011;8478;49.208;8.806;2023-02-18T11:32:51;5.80;;;5.40;;
2049;SDS011;8478;49.208;8.806;2023-02-18T11:35:24;5.77;;;5.37;;
2049;SDS011;8478;49.208;8.806;2023-02-18T11:37:52;6.00;;;5.60;;
2049;SDS011;8478;49.208;8.806;2023-02-18T11:40:24;6.23;;;5.70;;
2049;SDS011;8478;49.208;8.806;2023-02-18T11:43:13;5.60;;;4.73;;
2049;SDS011;8478;49.208;8.806;2023-02-18T11:45:40;5.07;;;4.70;;
2049;SDS011;8478;49.208;8.806;2023-02-18T11:48:07;4.63;;;4.30;;
2049;SDS011;8478;49.208;8.806;2023-02-18T11:50:38;4.30;;;4.00;;
2049;SDS011;8478;49.208;8.806;2023-02-18T11:53:23;5.67;;;5.20;;
2049;SDS011;8478;49.208;8.806;2023-02-18T11:56:00;4.67;;;4.37;;
2049;SDS011;8478;49.208;8.806;2023-02-18T11:58:36;7.63;;;4.90;;
2049;SDS011;8478;49.208;8.806;2023-02-18T12:01:05;4.60;;;4.20;;
2049;SDS011;8478;49.208;8.806;2023-02-18T12:03:48;4.90;;;4.50;;
2049;SDS011;8478;49.208;8.806;2023-02-18T12:06:28;4.20;;;3.97;;
2049;SDS011;8478;49.208;8.806;2023-02-18T12:09:21;4.50;;;4.17;;
2049;SDS011;8478;49.208;8.806;2023-02-18T12:12:02;4.30;;;3.90;;
2049;SDS011;8478;49.208;8.806;2023-02-18T12:14:33;3.97;;;3.67;;
2049;SDS011;8478;49.208;8.806;2023-02-18T12:17:13;4.53;;;4.23;;
2049;SDS011;8478;49.208;8.806;2023-02-18T12:25:32;4.20;;;4.00;;
2049;SDS011;8478;49.208;8.806;2023-02-18T13:03:38;3.90;;;3.60;;
2049;SDS011;8478;49.208;8.806;2023-02-18T13:11:46;4.47;;;4.17;;
2049;SDS011;8478;49.208;8.806;2023-02-18T13:14:21;4.90;;;4.50;;
2049;SDS011;8478;49.208;8.806;2023-02-18T13:16:53;4.00;;;3.80;;
2049;SDS011;8478;49.208;8.806;2023-02-18T13:19:32;4.40;;;4.10;;
2049;SDS011;8478;49.208;8.806;2023-02-18T13:22:07;5.20;;;4.80;;
2049;SDS011;8478;49.208;8.806;2023-02-18T13:24:37;3.83;;;3.63;;
2049;SDS011;8478;49.208;8.806;2023-02-18T13:27:15;4.03;;;3.73;;
2049;SDS011;8478;49.208;8.806;2023-02-18T13:30:01;5.77;;;4.63;;
2049;SDS011;8478;49.208;8.806;2023-02-18T13:38:15;4.23;;;3.83;;
2049;SDS011;8478;49.208;8.806;2023-02-18T13:40:55;4.27;;;3.97;;
2049;SDS011;8478;49.208;8.806;2023-02-18T13:51:15;3.70;;;3.50;;
2049;SDS011;8478;49.208;8.806;2023-02-18T13:53:55;3.67;;;3.47;;
2049;SDS011;8478;49.208;8.806;2023-02-18T13:56:28;3.70;;;3.40;;
2049;SDS011;8478;49.208;8.806;2023-02-18T13:59:17;4.00;;;3.80;;
2049;SDS011;8478;49.208;8.806;2023-02-18T14:01:45;3.93;;;3.63;;
2049;SDS011;8478;49.208;8.806;2023-02-18T14:09:43;3.67;;;3.47;;
2049;SDS011;8478;49.208;8.806;2023-02-18T14:12:22;3.63;;;3.43;;
2049;SDS011;8478;49.208;8.806;2023-02-18T14:14:49;3.80;;;3.60;;
2049;SDS011;8478;49.208;8.806;2023-02-18T14:20:45;4.20;;;3.77;;
2049;SDS011;8478;49.208;8.806;2023-02-18T14:22:48;3.33;;;3.03;;
2049;SDS011;8478;49.208;8.806;2023-02-18T14:25:20;4.50;;;4.07;;
2049;SDS011;8478;49.208;8.806;2023-02-18T14:27:55;4.20;;;3.90;;
2049;SDS011;8478;49.208;8.806;2023-02-18T14:30:30;3.63;;;3.43;;
2049;SDS011;8478;49.208;8.806;2023-02-18T14:33:02;4.13;;;3.87;;
2049;SDS011;8478;49.208;8.806;2023-02-18T14:43:58;4.20;;;3.90;;
2049;SDS011;8478;49.208;8.806;2023-02-18T14:49:35;5.70;;;4.63;;
2049;SDS011;8478;49.208;8.806;2023-02-18T14:52:11;4.97;;;4.57;;
2049;SDS011;8478;49.208;8.806;2023-02-18T14:54:53;4.67;;;4.37;;
2049;SDS011;8478;49.208;8.806;2023-02-18T14:57:19;5.20;;;4.80;;
2049;SDS011;8478;49.208;8.806;2023-02-18T14:59:58;4.93;;;4.53;;
2049;SDS011;8478;49.208;8.806;2023-02-18T15:02:25;5.33;;;4.93;;
2049;SDS011;8478;49.208;8.806;2023-02-18T15:04:54;5.13;;;4.73;;
2049;SDS011;8478;49.208;8.806;2023-02-18T15:07:36;5.90;;;5.20;;
2049;SDS011;8478;49.208;8.806;2023-02-18T15:10:02;5.37;;;5.07;;
2049;SDS011;8478;49.208;8.806;2023-02-18T15:12:28;4.97;;;4.67;;
2049;SDS011;8478;49.208;8.806;2023-02-18T15:14:54;5.20;;;4.80;;
2049;SDS011;8478;49.208;8.806;2023-02-18T15:17:25;5.67;;;5.20;;
2049;SDS011;8478;49.208;8.806;2023-02-18T15:19:55;5.83;;;5.43;;
2049;SDS011;8478;49.208;8.806;2023-02-18T15:22:26;5.63;;;5.23;;
2049;SDS011;8478;49.208;8.806;2023-02-18T15:24:55;5.53;;;5.03;;
2049;SDS011;8478;49.208;8.806;2023-02-18T15:27:22;4.80;;;4.50;;
2049;SDS011;8478;49.208;8.806;2023-02-18T15:29:57;5.30;;;4.90;;
2049;SDS011;8478;49.208;8.806;2023-02-18T15:32:30;5.80;;;5.37;;
2049;SDS011;8478;49.208;8.806;2023-02-18T15:34:57;5.30;;;4.90;;
2049;SDS011;8478;49.208;8.806;2023-02-18T15:37:38;5.37;;;5.07;;
2049;SDS011;8478;49.208;8.806;2023-02-18T15:40:14;5.00;;;4.70;;
2049;SDS011;8478;49.208;8.806;2023-02-18T15:42:40;5.33;;;4.87;;
2049;SDS011;8478;49.208;8.806;2023-02-18T15:45:17;5.07;;;4.67;;
2049;SDS011;8478;49.208;8.806;2023-02-18T15:47:46;4.73;;;4.43;;
2049;SDS011;8478;49.208;8.806;2023-02-18T15:50:21;4.87;;;4.50;;
2049;SDS011;8478;49.208;8.806;2023-02-18T15:52:53;6.03;;;5.53;;
2049;SDS011;8478;49.208;8.806;2023-02-18T15:55:32;5.10;;;4.70;;
2049;SDS011;8478;49.208;8.806;2023-02-18T15:58:01;4.87;;;4.57;;
2049;SDS011;8478;49.208;8.806;2023-02-18T16:00:49;5.77;;;5.37;;
2049;SDS011;8478;49.208;8.806;2023-02-18T16:03:24;5.23;;;4.90;;
2049;SDS011;8478;49.208;8.806;2023-02-18T16:06:17;5.93;;;5.33;;
2049;SDS011;8478;49.208;8.806;2023-02-18T16:08:55;5.43;;;5.10;;
2049;SDS011;8478;49.208;8.806;2023-02-18T16:11:58;5.40;;;5.00;;
2049;SDS011;8478;49.208;8.806;2023-02-18T16:19:45;5.43;;;5.10;;
2049;SDS011;8478;49.208;8.806;2023-02-18T16:25:07;5.80;;;5.30;;
2049;SDS011;8478;49.208;8.806;2023-02-18T16:30:25;5.40;;;5.00;;
2049;SDS011;8478;49.208;8.806;2023-02-18T16:32:56;5.13;;;4.73;;
2049;SDS011;8478;49.208;8.806;2023-02-18T16:35:23;5.43;;;5.03;;
2049;SDS011;8478;49.208;8.806;2023-02-18T16:37:51;5.50;;;5.20;;
2049;SDS011;8478;49.208;8.806;2023-02-18T16:42:51;6.17;;;5.67;;
2049;SDS011;8478;49.208;8.806;2023-02-18T16:45:18;5.80;;;5.30;;
2049;SDS011;8478;49.208;8.806;2023-02-18T16:47:46;6.17;;;5.77;;
2049;SDS011;8478;49.208;8.806;2023-02-18T16:50:15;6.30;;;5.90;;
2049;SDS011;8478;49.208;8.806;2023-02-18T16:52:43;5.70;;;5.30;;
2049;SDS011;8478;49.208;8.806;2023-02-18T16:55:16;5.60;;;5.20;;
2049;SDS011;8478;49.208;8.806;2023-02-18T16:57:46;6.50;;;5.53;;
2049;SDS011;8478;49.208;8.806;2023-02-18T17:00:13;5.93;;;5.43;;
2049;SDS011;8478;49.208;8.806;2023-02-18T17:02:40;6.27;;;5.77;;
2049;SDS011;8478;49.208;8.806;2023-02-18T17:05:15;5.90;;;5.50;;
2049;SDS011;8478;49.208;8.806;2023-02-18T17:07:46;5.57;;;5.27;;
2049;SDS011;8478;49.208;8.806;2023-02-18T17:10:12;6.77;;;6.07;;
2049;SDS011;8478;49.208;8.806;2023-02-18T17:12:38;6.63;;;6.13;;
2049;SDS011;8478;49.208;8.806;2023-02-18T17:15:29;6.80;;;6.30;;
2049;SDS011;8478;49.208;8.806;2023-02-18T17:17:57;5.93;;;5.53;;
2049;SDS011;8478;49.208;8.806;2023-02-18T17:20:24;6.30;;;5.80;;
2049;SDS011;8478;49.208;8.806;2023-02-18T17:22:54;6.03;;;5.73;;
2049;SDS011;8478;49.208;8.806;2023-02-18T17:25:31;5.87;;;5.40;;
2049;SDS011;8478;49.208;8.806;2023-02-18T17:28:00;7.10;;;6.60;;
2049;SDS011;8478;49.208;8.806;2023-02-18T17:30:26;6.50;;;5.90;;
2049;SDS011;8478;49.208;8.806;2023-02-18T17:32:52;6.23;;;5.83;;
2049;SDS011;8478;49.208;8.806;2023-02-18T17:35:19;7.33;;;6.77;;
2049;SDS011;8478;49.208;8.806;2023-02-18T17:37:46;6.20;;;5.70;;
2049;SDS011;8478;49.208;8.806;2023-02-18T17:40:13;7.33;;;6.70;;
2049;SDS011;8478;49.208;8.806;2023-02-18T17:42:43;6.70;;;6.00;;
2049;SDS011;8478;49.208;8.806;2023-02-18T17:45:14;7.13;;;6.53;;
2049;SDS011;8478;49.208;8.806;2023-02-18T17:47:50;6.57;;;6.07;;
2049;SDS011;8478;49.208;8.806;2023-02-18T17:50:15;6.23;;;5.80;;
2049;SDS011;8478;49.208;8.806;2023-02-18T17:52:41;7.07;;;6.57;;
2049;SDS011;8478;49.208;8.806;2023-02-18T17:55:23;6.00;;;5.50;;